sensor_id;sensor_type;location;lat;lon;timestamp;P1;durP1;ratioP1;P2;durP2;ratioP2
39502;SDS011;26970;49.900;10.774;2023-04-28T00:01:14;8.18;;;4.85;;
39502;SDS011;26970;49.900;10.774;2023-04-28T00:03:40;8.63;;;5.25;;
39502;SDS011;26970;49.900;10.774;2023-04-28T00:06:06;9.20;;;5.03;;
39502;SDS011;26970;49.900;10.774;2023-04-28T00:08:32;9.02;;;5.18;;
39502;SDS011;26970;49.900;10.774;2023-04-28T00:10:58;11.60;;;5.28;;
39502;SDS011;26970;49.900;10.774;2023-04-28T00:13:24;8.68;;;5.00;;
39502;SDS011;26970;49.900;10.774;2023-04-28T00:15:50;8.60;;;5.13;;
39502;SDS011;26970;49.900;10.774;2023-04-28T00:18:17;7.97;;;5.05;;
39502;SDS011;26970;49.900;10.774;2023-04-28T00:20:43;10.07;;;4.85;;
39502;SDS011;26970;49.900;10.774;2023-04-28T00:23:08;11.45;;;5.43;;
39502;SDS011;26970;49.900;10.774;2023-04-28T00:25:34;9.85;;;4.63;;
39502;SDS011;26970;49.900;10.774;2023-04-28T00:28:00;8.98;;;4.97;;
39502;SDS011;26970;49.900;10.774;2023-04-28T00:30:25;8.98;;;4.97;;
39502;SDS011;26970;49.900;10.774;2023-04-28T00:32:51;7.85;;;4.88;;
39502;SDS011;26970;49.900;10.774;2023-04-28T00:35:17;11.65;;;5.05;;
39502;SDS011;26970;49.900;10.774;2023-04-28T00:37:43;6.88;;;4.40;;
39502;SDS011;26970;49.900;10.774;2023-04-28T00:40:08;9.80;;;4.53;;
39502;SDS011;26970;49.900;10.774;2023-04-28T00:42:34;8.90;;;4.75;;
39502;SDS011;26970;49.900;10.774;2023-04-28T00:45:00;11.98;;;5.95;;
39502;SDS011;26970;49.900;10.774;2023-04-28T00:47:30;11.10;;;4.63;;
39502;SDS011;26970;49.900;10.774;2023-04-28T00:50:00;12.70;;;4.97;;
39502;SDS011;26970;49.900;10.774;2023-04-28T00:52:26;10.48;;;5.15;;
39502;SDS011;26970;49.900;10.774;2023-04-28T00:54:52;9.85;;;4.57;;
39502;SDS011;26970;49.900;10.774;2023-04-28T00:57:18;9.65;;;4.95;;
39502;SDS011;26970;49.900;10.774;2023-04-28T00:59:44;12.45;;;5.60;;
39502;SDS011;26970;49.900;10.774;2023-04-28T01:02:10;11.20;;;4.82;;
39502;SDS011;26970;49.900;10.774;2023-04-28T01:04:42;8.87;;;4.63;;
39502;SDS011;26970;49.900;10.774;2023-04-28T01:07:09;8.98;;;4.80;;
39502;SDS011;26970;49.900;10.774;2023-04-28T01:09:34;10.38;;;4.68;;
39502;SDS011;26970;49.900;10.774;2023-04-28T01:12:01;10.27;;;5.00;;
39502;SDS011;26970;49.900;10.774;2023-04-28T01:14:26;9.32;;;4.68;;
39502;SDS011;26970;49.900;10.774;2023-04-28T01:16:52;8.60;;;4.47;;
39502;SDS011;26970;49.900;10.774;2023-04-28T01:19:21;8.15;;;4.57;;
39502;SDS011;26970;49.900;10.774;2023-04-28T01:21:48;9.48;;;4.70;;
39502;SDS011;26970;49.900;10.774;2023-04-28T01:24:14;8.18;;;4.57;;
39502;SDS011;26970;49.900;10.774;2023-04-28T01:26:40;9.60;;;4.50;;
39502;SDS011;26970;49.900;10.774;2023-04-28T01:29:05;7.80;;;4.53;;
39502;SDS011;26970;49.900;10.774;2023-04-28T01:31:31;8.00;;;4.47;;
39502;SDS011;26970;49.900;10.774;2023-04-28T01:33:57;9.07;;;4.78;;
39502;SDS011;26970;49.900;10.774;2023-04-28T01:36:23;10.13;;;4.97;;
39502;SDS011;26970;49.900;10.774;2023-04-28T01:38:49;9.07;;;4.70;;
39502;SDS011;26970;49.900;10.774;2023-04-28T01:41:14;8.07;;;4.40;;
39502;SDS011;26970;49.900;10.774;2023-04-28T01:43:40;6.88;;;4.50;;
39502;SDS011;26970;49.900;10.774;2023-04-28T01:46:07;8.07;;;4.20;;
39502;SDS011;26970;49.900;10.774;2023-04-28T01:48:34;10.75;;;4.82;;
39502;SDS011;26970;49.900;10.774;2023-04-28T01:50:59;8.10;;;5.75;;
39502;SDS011;26970;49.900;10.774;2023-04-28T01:53:25;9.57;;;4.95;;
39502;SDS011;26970;49.900;10.774;2023-04-28T01:55:51;8.27;;;4.47;;
39502;SDS011;26970;49.900;10.774;2023-04-28T01:58:17;11.57;;;4.82;;
39502;SDS011;26970;49.900;10.774;2023-04-28T02:00:42;9.80;;;4.50;;
39502;SDS011;26970;49.900;10.774;2023-04-28T02:03:08;9.52;;;4.57;;
39502;SDS011;26970;49.900;10.774;2023-04-28T02:05:34;8.50;;;4.30;;
39502;SDS011;26970;49.900;10.774;2023-04-28T02:08:00;7.00;;;4.32;;
39502;SDS011;26970;49.900;10.774;2023-04-28T02:10:26;8.43;;;4.78;;
39502;SDS011;26970;49.900;10.774;2023-04-28T02:12:52;9.18;;;5.20;;
39502;SDS011;26970;49.900;10.774;2023-04-28T02:15:17;12.95;;;4.85;;
39502;SDS011;26970;49.900;10.774;2023-04-28T02:17:43;8.90;;;4.90;;
39502;SDS011;26970;49.900;10.774;2023-04-28T02:20:09;9.07;;;4.90;;
39502;SDS011;26970;49.900;10.774;2023-04-28T02:22:35;11.13;;;4.50;;
39502;SDS011;26970;49.900;10.774;2023-04-28T02:25:01;9.63;;;4.80;;
39502;SDS011;26970;49.900;10.774;2023-04-28T02:27:27;9.40;;;4.78;;
39502;SDS011;26970;49.900;10.774;2023-04-28T02:29:52;10.43;;;4.88;;
39502;SDS011;26970;49.900;10.774;2023-04-28T02:32:18;9.10;;;4.50;;
39502;SDS011;26970;49.900;10.774;2023-04-28T02:34:43;8.70;;;4.68;;
39502;SDS011;26970;49.900;10.774;2023-04-28T02:37:09;8.35;;;4.75;;
39502;SDS011;26970;49.900;10.774;2023-04-28T02:39:35;9.63;;;5.25;;
39502;SDS011;26970;49.900;10.774;2023-04-28T02:42:01;8.07;;;4.60;;
39502;SDS011;26970;49.900;10.774;2023-04-28T02:44:29;9.27;;;5.05;;
39502;SDS011;26970;49.900;10.774;2023-04-28T02:46:55;10.73;;;5.53;;
39502;SDS011;26970;49.900;10.774;2023-04-28T02:49:21;9.68;;;4.95;;
39502;SDS011;26970;49.900;10.774;2023-04-28T02:51:46;7.88;;;4.75;;
39502;SDS011;26970;49.900;10.774;2023-04-28T02:54:12;9.95;;;5.53;;
39502;SDS011;26970;49.900;10.774;2023-04-28T02:56:37;7.88;;;4.60;;
39502;SDS011;26970;49.900;10.774;2023-04-28T02:59:05;8.52;;;4.93;;
39502;SDS011;26970;49.900;10.774;2023-04-28T03:01:31;8.75;;;5.28;;
39502;SDS011;26970;49.900;10.774;2023-04-28T03:03:56;9.90;;;4.95;;
39502;SDS011;26970;49.900;10.774;2023-04-28T03:06:22;9.57;;;5.57;;
39502;SDS011;26970;49.900;10.774;2023-04-28T03:08:48;8.73;;;4.90;;
39502;SDS011;26970;49.900;10.774;2023-04-28T03:11:13;10.27;;;5.18;;
39502;SDS011;26970;49.900;10.774;2023-04-28T03:13:39;9.45;;;4.93;;
39502;SDS011;26970;49.900;10.774;2023-04-28T03:16:05;13.52;;;4.85;;
39502;SDS011;26970;49.900;10.774;2023-04-28T03:18:31;11.15;;;5.32;;
39502;SDS011;26970;49.900;10.774;2023-04-28T03:20:57;8.93;;;4.63;;
39502;SDS011;26970;49.900;10.774;2023-04-28T03:23:22;9.80;;;5.82;;
39502;SDS011;26970;49.900;10.774;2023-04-28T03:25:48;12.98;;;6.88;;
39502;SDS011;26970;49.900;10.774;2023-04-28T03:28:14;7.63;;;4.93;;
39502;SDS011;26970;49.900;10.774;2023-04-28T03:30:40;8.75;;;4.88;;
39502;SDS011;26970;49.900;10.774;2023-04-28T03:33:05;8.60;;;5.57;;
39502;SDS011;26970;49.900;10.774;2023-04-28T03:35:31;10.02;;;5.70;;
39502;SDS011;26970;49.900;10.774;2023-04-28T03:37:56;10.15;;;5.90;;
39502;SDS011;26970;49.900;10.774;2023-04-28T03:40:22;9.55;;;5.45;;
39502;SDS011;26970;49.900;10.774;2023-04-28T03:42:48;9.77;;;5.47;;
39502;SDS011;26970;49.900;10.774;2023-04-28T03:45:13;10.45;;;5.53;;
39502;SDS011;26970;49.900;10.774;2023-04-28T03:47:39;10.82;;;5.68;;
39502;SDS011;26970;49.900;10.774;2023-04-28T03:50:05;9.27;;;5.75;;
39502;SDS011;26970;49.900;10.774;2023-04-28T03:52:31;12.93;;;6.80;;
39502;SDS011;26970;49.900;10.774;2023-04-28T03:54:57;8.95;;;5.47;;
39502;SDS011;26970;49.900;10.774;2023-04-28T03:57:22;8.77;;;6.22;;
39502;SDS011;26970;49.900;10.774;2023-04-28T03:59:48;11.75;;;5.18;;
39502;SDS011;26970;49.900;10.774;2023-04-28T04:02:13;9.80;;;5.45;;
39502;SDS011;26970;49.900;10.774;2023-04-28T04:04:39;12.23;;;6.43;;
39502;SDS011;26970;49.900;10.774;2023-04-28T04:07:04;11.48;;;6.15;;
39502;SDS011;26970;49.900;10.774;2023-04-28T04:09:30;8.73;;;5.97;;
39502;SDS011;26970;49.900;10.774;2023-04-28T04:11:56;11.27;;;5.28;;
39502;SDS011;26970;49.900;10.774;2023-04-28T04:14:22;10.05;;;5.85;;
39502;SDS011;26970;49.900;10.774;2023-04-28T04:16:48;11.38;;;5.57;;
39502;SDS011;26970;49.900;10.774;2023-04-28T04:19:13;9.50;;;5.93;;
39502;SDS011;26970;49.900;10.774;2023-04-28T04:21:39;14.00;;;6.47;;
39502;SDS011;26970;49.900;10.774;2023-04-28T04:24:05;10.98;;;6.50;;
39502;SDS011;26970;49.900;10.774;2023-04-28T04:26:31;8.65;;;5.93;;
39502;SDS011;26970;49.900;10.774;2023-04-28T04:28:56;12.27;;;6.32;;
39502;SDS011;26970;49.900;10.774;2023-04-28T04:31:22;9.55;;;5.75;;
39502;SDS011;26970;49.900;10.774;2023-04-28T04:33:48;8.63;;;5.90;;
39502;SDS011;26970;49.900;10.774;2023-04-28T04:36:13;9.10;;;6.18;;
39502;SDS011;26970;49.900;10.774;2023-04-28T04:38:39;12.40;;;6.40;;
39502;SDS011;26970;49.900;10.774;2023-04-28T04:41:05;12.13;;;6.65;;
39502;SDS011;26970;49.900;10.774;2023-04-28T04:43:30;11.60;;;6.70;;
39502;SDS011;26970;49.900;10.774;2023-04-28T04:45:56;10.45;;;6.30;;
39502;SDS011;26970;49.900;10.774;2023-04-28T04:48:25;11.32;;;6.75;;
39502;SDS011;26970;49.900;10.774;2023-04-28T04:50:50;9.80;;;7.07;;
39502;SDS011;26970;49.900;10.774;2023-04-28T04:53:16;10.70;;;6.55;;
39502;SDS011;26970;49.900;10.774;2023-04-28T04:55:41;11.55;;;6.15;;
39502;SDS011;26970;49.900;10.774;2023-04-28T04:58:07;11.07;;;6.85;;
39502;SDS011;26970;49.900;10.774;2023-04-28T05:00:33;11.50;;;6.97;;
39502;SDS011;26970;49.900;10.774;2023-04-28T05:02:59;10.48;;;6.90;;
39502;SDS011;26970;49.900;10.774;2023-04-28T05:05:25;12.27;;;6.45;;
39502;SDS011;26970;49.900;10.774;2023-04-28T05:07:51;11.50;;;7.32;;
39502;SDS011;26970;49.900;10.774;2023-04-28T05:10:16;10.98;;;7.22;;
39502;SDS011;26970;49.900;10.774;2023-04-28T05:12:42;12.02;;;6.80;;
39502;SDS011;26970;49.900;10.774;2023-04-28T05:15:08;10.45;;;6.82;;
39502;SDS011;26970;49.900;10.774;2023-04-28T05:17:34;10.80;;;7.35;;
39502;SDS011;26970;49.900;10.774;2023-04-28T05:20:00;11.25;;;6.93;;
39502;SDS011;26970;49.900;10.774;2023-04-28T05:22:26;12.38;;;7.05;;
39502;SDS011;26970;49.900;10.774;2023-04-28T05:24:52;11.07;;;6.93;;
39502;SDS011;26970;49.900;10.774;2023-04-28T05:27:17;9.63;;;7.18;;
39502;SDS011;26970;49.900;10.774;2023-04-28T05:29:43;9.40;;;6.35;;
39502;SDS011;26970;49.900;10.774;2023-04-28T05:32:09;12.93;;;6.75;;
39502;SDS011;26970;49.900;10.774;2023-04-28T05:34:35;9.30;;;6.32;;
39502;SDS011;26970;49.900;10.774;2023-04-28T05:37:00;14.07;;;6.85;;
39502;SDS011;26970;49.900;10.774;2023-04-28T05:39:26;11.82;;;7.13;;
39502;SDS011;26970;49.900;10.774;2023-04-28T05:41:51;11.50;;;6.78;;
39502;SDS011;26970;49.900;10.774;2023-04-28T05:44:17;10.15;;;6.47;;
39502;SDS011;26970;49.900;10.774;2023-04-28T05:46:43;11.98;;;5.90;;
39502;SDS011;26970;49.900;10.774;2023-04-28T05:49:09;13.45;;;6.88;;
39502;SDS011;26970;49.900;10.774;2023-04-28T05:51:35;9.93;;;6.60;;
39502;SDS011;26970;49.900;10.774;2023-04-28T05:54:00;8.98;;;6.00;;
39502;SDS011;26970;49.900;10.774;2023-04-28T05:56:26;9.15;;;6.53;;
39502;SDS011;26970;49.900;10.774;2023-04-28T05:58:52;8.07;;;5.68;;
39502;SDS011;26970;49.900;10.774;2023-04-28T06:01:18;13.15;;;6.18;;
39502;SDS011;26970;49.900;10.774;2023-04-28T06:03:43;10.45;;;6.03;;
39502;SDS011;26970;49.900;10.774;2023-04-28T06:06:09;9.32;;;6.25;;
39502;SDS011;26970;49.900;10.774;2023-04-28T06:08:35;7.63;;;6.25;;
39502;SDS011;26970;49.900;10.774;2023-04-28T06:11:04;9.80;;;5.90;;
39502;SDS011;26970;49.900;10.774;2023-04-28T06:13:31;11.02;;;6.63;;
39502;SDS011;26970;49.900;10.774;2023-04-28T06:15:56;11.05;;;5.88;;
39502;SDS011;26970;49.900;10.774;2023-04-28T06:18:22;12.05;;;6.63;;
39502;SDS011;26970;49.900;10.774;2023-04-28T06:20:48;7.47;;;5.28;;
39502;SDS011;26970;49.900;10.774;2023-04-28T06:23:14;9.52;;;6.32;;
39502;SDS011;26970;49.900;10.774;2023-04-28T06:25:40;11.15;;;6.15;;
39502;SDS011;26970;49.900;10.774;2023-04-28T06:28:05;11.77;;;6.15;;
39502;SDS011;26970;49.900;10.774;2023-04-28T06:30:31;11.25;;;6.53;;
39502;SDS011;26970;49.900;10.774;2023-04-28T06:32:58;12.20;;;6.88;;
39502;SDS011;26970;49.900;10.774;2023-04-28T06:35:24;10.13;;;6.30;;
39502;SDS011;26970;49.900;10.774;2023-04-28T06:37:50;10.25;;;6.57;;
39502;SDS011;26970;49.900;10.774;2023-04-28T06:40:15;8.45;;;5.90;;
39502;SDS011;26970;49.900;10.774;2023-04-28T06:42:41;12.30;;;6.70;;
39502;SDS011;26970;49.900;10.774;2023-04-28T06:45:07;10.85;;;6.25;;
39502;SDS011;26970;49.900;10.774;2023-04-28T06:47:33;9.25;;;6.22;;
39502;SDS011;26970;49.900;10.774;2023-04-28T06:49:58;8.50;;;6.18;;
39502;SDS011;26970;49.900;10.774;2023-04-28T06:52:25;13.90;;;6.55;;
39502;SDS011;26970;49.900;10.774;2023-04-28T06:54:53;9.63;;;6.55;;
39502;SDS011;26970;49.900;10.774;2023-04-28T06:57:18;9.77;;;6.35;;
39502;SDS011;26970;49.900;10.774;2023-04-28T06:59:45;12.50;;;6.88;;
39502;SDS011;26970;49.900;10.774;2023-04-28T07:02:11;11.45;;;6.00;;
39502;SDS011;26970;49.900;10.774;2023-04-28T07:04:36;10.52;;;6.90;;
39502;SDS011;26970;49.900;10.774;2023-04-28T07:07:02;10.75;;;7.05;;
39502;SDS011;26970;49.900;10.774;2023-04-28T07:09:32;14.73;;;6.80;;
39502;SDS011;26970;49.900;10.774;2023-04-28T07:12:01;11.43;;;6.70;;
39502;SDS011;26970;49.900;10.774;2023-04-28T07:14:28;10.38;;;7.38;;
39502;SDS011;26970;49.900;10.774;2023-04-28T07:16:53;12.30;;;6.68;;
39502;SDS011;26970;49.900;10.774;2023-04-28T07:19:19;10.23;;;6.75;;
39502;SDS011;26970;49.900;10.774;2023-04-28T07:21:45;14.85;;;7.28;;
39502;SDS011;26970;49.900;10.774;2023-04-28T07:24:10;15.63;;;6.88;;
39502;SDS011;26970;49.900;10.774;2023-04-28T07:26:36;10.05;;;6.68;;
39502;SDS011;26970;49.900;10.774;2023-04-28T07:29:02;11.05;;;6.90;;
39502;SDS011;26970;49.900;10.774;2023-04-28T07:31:27;12.10;;;7.70;;
39502;SDS011;26970;49.900;10.774;2023-04-28T07:33:53;11.90;;;7.70;;
39502;SDS011;26970;49.900;10.774;2023-04-28T07:36:19;11.00;;;7.00;;
39502;SDS011;26970;49.900;10.774;2023-04-28T07:38:45;13.70;;;7.00;;
39502;SDS011;26970;49.900;10.774;2023-04-28T07:41:10;10.77;;;6.82;;
39502;SDS011;26970;49.900;10.774;2023-04-28T07:43:36;13.70;;;7.05;;
39502;SDS011;26970;49.900;10.774;2023-04-28T07:46:02;11.82;;;7.07;;
39502;SDS011;26970;49.900;10.774;2023-04-28T07:48:27;10.40;;;7.25;;
39502;SDS011;26970;49.900;10.774;2023-04-28T07:50:53;12.43;;;7.22;;
39502;SDS011;26970;49.900;10.774;2023-04-28T07:53:18;11.32;;;7.68;;
39502;SDS011;26970;49.900;10.774;2023-04-28T07:55:45;11.13;;;7.63;;
39502;SDS011;26970;49.900;10.774;2023-04-28T07:58:11;12.30;;;8.02;;
39502;SDS011;26970;49.900;10.774;2023-04-28T08:00:37;14.68;;;8.00;;
39502;SDS011;26970;49.900;10.774;2023-04-28T08:03:02;12.85;;;7.57;;
39502;SDS011;26970;49.900;10.774;2023-04-28T08:05:28;12.85;;;7.82;;
39502;SDS011;26970;49.900;10.774;2023-04-28T08:07:54;12.15;;;8.13;;
39502;SDS011;26970;49.900;10.774;2023-04-28T08:10:20;11.95;;;8.40;;
39502;SDS011;26970;49.900;10.774;2023-04-28T08:12:45;12.57;;;8.85;;
39502;SDS011;26970;49.900;10.774;2023-04-28T08:15:11;13.25;;;8.43;;
39502;SDS011;26970;49.900;10.774;2023-04-28T08:17:37;13.50;;;8.00;;
39502;SDS011;26970;49.900;10.774;2023-04-28T08:20:03;14.82;;;9.02;;
39502;SDS011;26970;49.900;10.774;2023-04-28T08:22:30;12.50;;;8.95;;
39502;SDS011;26970;49.900;10.774;2023-04-28T08:24:56;14.50;;;9.38;;
39502;SDS011;26970;49.900;10.774;2023-04-28T08:27:21;13.88;;;8.95;;
39502;SDS011;26970;49.900;10.774;2023-04-28T08:29:48;11.90;;;9.02;;
39502;SDS011;26970;49.900;10.774;2023-04-28T08:32:14;14.88;;;9.15;;
39502;SDS011;26970;49.900;10.774;2023-04-28T08:34:40;14.35;;;9.02;;
39502;SDS011;26970;49.900;10.774;2023-04-28T08:37:06;11.45;;;8.63;;
39502;SDS011;26970;49.900;10.774;2023-04-28T08:39:31;12.82;;;8.82;;
39502;SDS011;26970;49.900;10.774;2023-04-28T08:41:58;12.27;;;8.48;;
39502;SDS011;26970;49.900;10.774;2023-04-28T08:44:23;12.13;;;8.95;;
39502;SDS011;26970;49.900;10.774;2023-04-28T08:46:49;12.30;;;8.90;;
39502;SDS011;26970;49.900;10.774;2023-04-28T08:49:20;14.15;;;8.90;;
39502;SDS011;26970;49.900;10.774;2023-04-28T08:51:58;18.60;;;9.75;;
39502;SDS011;26970;49.900;10.774;2023-04-28T08:54:26;12.65;;;9.07;;
39502;SDS011;26970;49.900;10.774;2023-04-28T08:56:56;13.03;;;8.97;;
39502;SDS011;26970;49.900;10.774;2023-04-28T08:59:22;13.52;;;9.25;;
39502;SDS011;26970;49.900;10.774;2023-04-28T09:01:48;15.82;;;9.90;;
39502;SDS011;26970;49.900;10.774;2023-04-28T09:04:17;13.52;;;8.55;;
39502;SDS011;26970;49.900;10.774;2023-04-28T09:06:43;15.73;;;9.98;;
39502;SDS011;26970;49.900;10.774;2023-04-28T09:09:19;15.48;;;10.07;;
39502;SDS011;26970;49.900;10.774;2023-04-28T09:11:50;11.18;;;9.20;;
39502;SDS011;26970;49.900;10.774;2023-04-28T09:14:20;13.77;;;9.15;;
39502;SDS011;26970;49.900;10.774;2023-04-28T09:16:46;16.60;;;9.65;;
39502;SDS011;26970;49.900;10.774;2023-04-28T09:19:13;13.65;;;9.38;;
39502;SDS011;26970;49.900;10.774;2023-04-28T09:21:47;12.20;;;9.88;;
39502;SDS011;26970;49.900;10.774;2023-04-28T09:27:01;16.05;;;10.00;;
39502;SDS011;26970;49.900;10.774;2023-04-28T09:29:32;16.83;;;10.63;;
39502;SDS011;26970;49.900;10.774;2023-04-28T09:32:14;13.43;;;10.45;;
39502;SDS011;26970;49.900;10.774;2023-04-28T09:37:31;14.88;;;10.35;;
39502;SDS011;26970;49.900;10.774;2023-04-28T09:39:56;15.30;;;10.40;;
39502;SDS011;26970;49.900;10.774;2023-04-28T09:45:04;15.85;;;10.85;;
39502;SDS011;26970;49.900;10.774;2023-04-28T09:47:32;18.95;;;11.48;;
39502;SDS011;26970;49.900;10.774;2023-04-28T09:50:00;13.63;;;10.52;;
39502;SDS011;26970;49.900;10.774;2023-04-28T09:52:28;17.92;;;10.75;;
39502;SDS011;26970;49.900;10.774;2023-04-28T09:54:54;13.55;;;9.95;;
39502;SDS011;26970;49.900;10.774;2023-04-28T09:57:21;14.30;;;10.18;;
39502;SDS011;26970;49.900;10.774;2023-04-28T09:59:48;13.90;;;9.85;;
39502;SDS011;26970;49.900;10.774;2023-04-28T10:02:15;12.80;;;10.23;;
39502;SDS011;26970;49.900;10.774;2023-04-28T10:04:46;17.58;;;11.27;;
39502;SDS011;26970;49.900;10.774;2023-04-28T10:07:15;14.65;;;11.38;;
39502;SDS011;26970;49.900;10.774;2023-04-28T10:09:42;17.55;;;11.18;;
39502;SDS011;26970;49.900;10.774;2023-04-28T10:12:11;17.02;;;11.82;;
39502;SDS011;26970;49.900;10.774;2023-04-28T10:14:38;15.45;;;11.10;;
39502;SDS011;26970;49.900;10.774;2023-04-28T10:17:06;17.75;;;11.82;;
39502;SDS011;26970;49.900;10.774;2023-04-28T10:19:32;16.45;;;10.52;;
39502;SDS011;26970;49.900;10.774;2023-04-28T10:27:43;14.50;;;11.27;;
39502;SDS011;26970;49.900;10.774;2023-04-28T10:32:42;14.73;;;11.02;;
39502;SDS011;26970;49.900;10.774;2023-04-28T10:38:08;14.38;;;10.63;;
39502;SDS011;26970;49.900;10.774;2023-04-28T10:40:43;18.10;;;11.80;;
39502;SDS011;26970;49.900;10.774;2023-04-28T10:43:13;16.77;;;11.60;;
39502;SDS011;26970;49.900;10.774;2023-04-28T10:56:19;16.48;;;11.88;;
39502;SDS011;26970;49.900;10.774;2023-04-28T11:04:05;15.10;;;12.00;;
39502;SDS011;26970;49.900;10.774;2023-04-28T11:06:36;16.17;;;12.70;;
39502;SDS011;26970;49.900;10.774;2023-04-28T11:09:45;14.73;;;12.20;;
39502;SDS011;26970;49.900;10.774;2023-04-28T11:12:13;16.88;;;11.90;;
39502;SDS011;26970;49.900;10.774;2023-04-28T11:14:40;16.70;;;12.13;;
39502;SDS011;26970;49.900;10.774;2023-04-28T11:17:06;14.27;;;11.15;;
39502;SDS011;26970;49.900;10.774;2023-04-28T11:19:34;16.00;;;11.07;;
39502;SDS011;26970;49.900;10.774;2023-04-28T11:22:02;13.35;;;10.88;;
39502;SDS011;26970;49.900;10.774;2023-04-28T11:26:59;13.85;;;10.73;;
39502;SDS011;26970;49.900;10.774;2023-04-28T11:29:33;14.95;;;10.98;;
39502;SDS011;26970;49.900;10.774;2023-04-28T11:32:03;15.93;;;11.88;;
39502;SDS011;26970;49.900;10.774;2023-04-28T11:34:29;17.15;;;12.52;;
39502;SDS011;26970;49.900;10.774;2023-04-28T11:36:55;16.42;;;12.73;;
39502;SDS011;26970;49.900;10.774;2023-04-28T11:39:24;15.50;;;12.18;;
39502;SDS011;26970;49.900;10.774;2023-04-28T11:41:54;15.05;;;12.73;;
39502;SDS011;26970;49.900;10.774;2023-04-28T11:44:22;16.83;;;12.45;;
39502;SDS011;26970;49.900;10.774;2023-04-28T11:46:52;17.52;;;13.52;;
39502;SDS011;26970;49.900;10.774;2023-04-28T11:49:20;18.50;;;13.77;;
39502;SDS011;26970;49.900;10.774;2023-04-28T11:51:48;17.65;;;12.77;;
39502;SDS011;26970;49.900;10.774;2023-04-28T11:54:19;16.88;;;12.77;;
39502;SDS011;26970;49.900;10.774;2023-04-28T11:56:49;20.20;;;14.52;;
39502;SDS011;26970;49.900;10.774;2023-04-28T11:59:16;19.30;;;14.05;;
39502;SDS011;26970;49.900;10.774;2023-04-28T12:01:48;17.77;;;14.02;;
39502;SDS011;26970;49.900;10.774;2023-04-28T12:04:15;22.75;;;14.75;;
39502;SDS011;26970;49.900;10.774;2023-04-28T12:06:57;16.98;;;13.15;;
39502;SDS011;26970;49.900;10.774;2023-04-28T12:09:24;14.82;;;12.15;;
39502;SDS011;26970;49.900;10.774;2023-04-28T12:14:55;19.23;;;13.98;;
39502;SDS011;26970;49.900;10.774;2023-04-28T12:17:25;17.38;;;14.25;;
39502;SDS011;26970;49.900;10.774;2023-04-28T12:20:03;15.88;;;12.73;;
39502;SDS011;26970;49.900;10.774;2023-04-28T12:22:30;16.23;;;13.95;;
39502;SDS011;26970;49.900;10.774;2023-04-28T12:25:11;15.85;;;12.82;;
39502;SDS011;26970;49.900;10.774;2023-04-28T12:27:40;15.75;;;11.43;;
39502;SDS011;26970;49.900;10.774;2023-04-28T12:32:38;14.30;;;11.52;;
39502;SDS011;26970;49.900;10.774;2023-04-28T12:35:07;13.52;;;10.57;;
39502;SDS011;26970;49.900;10.774;2023-04-28T12:37:33;15.20;;;11.77;;
39502;SDS011;26970;49.900;10.774;2023-04-28T12:39:58;14.20;;;10.77;;
39502;SDS011;26970;49.900;10.774;2023-04-28T12:42:25;13.18;;;11.30;;
39502;SDS011;26970;49.900;10.774;2023-04-28T12:44:51;13.43;;;11.20;;
39502;SDS011;26970;49.900;10.774;2023-04-28T12:47:17;15.18;;;12.40;;
39502;SDS011;26970;49.900;10.774;2023-04-28T12:49:43;17.20;;;11.93;;
39502;SDS011;26970;49.900;10.774;2023-04-28T12:52:08;13.20;;;10.88;;
39502;SDS011;26970;49.900;10.774;2023-04-28T12:54:34;15.00;;;11.60;;
39502;SDS011;26970;49.900;10.774;2023-04-28T12:57:01;14.63;;;12.05;;
39502;SDS011;26970;49.900;10.774;2023-04-28T12:59:29;12.75;;;10.73;;
39502;SDS011;26970;49.900;10.774;2023-04-28T13:01:55;14.02;;;10.52;;
39502;SDS011;26970;49.900;10.774;2023-04-28T13:04:20;12.15;;;10.35;;
39502;SDS011;26970;49.900;10.774;2023-04-28T13:06:46;15.57;;;12.10;;
39502;SDS011;26970;49.900;10.774;2023-04-28T13:09:13;13.75;;;11.18;;
39502;SDS011;26970;49.900;10.774;2023-04-28T13:11:39;14.40;;;12.40;;
39502;SDS011;26970;49.900;10.774;2023-04-28T13:14:06;11.93;;;10.60;;
39502;SDS011;26970;49.900;10.774;2023-04-28T13:16:32;12.65;;;10.80;;
39502;SDS011;26970;49.900;10.774;2023-04-28T13:18:58;11.55;;;9.80;;
39502;SDS011;26970;49.900;10.774;2023-04-28T13:21:24;13.68;;;11.00;;
39502;SDS011;26970;49.900;10.774;2023-04-28T13:23:51;12.00;;;9.75;;
39502;SDS011;26970;49.900;10.774;2023-04-28T13:26:17;11.25;;;9.35;;
39502;SDS011;26970;49.900;10.774;2023-04-28T13:28:44;10.85;;;9.65;;
39502;SDS011;26970;49.900;10.774;2023-04-28T13:31:11;12.60;;;10.30;;
39502;SDS011;26970;49.900;10.774;2023-04-28T13:33:36;11.27;;;9.98;;
39502;SDS011;26970;49.900;10.774;2023-04-28T13:36:03;12.32;;;9.63;;
39502;SDS011;26970;49.900;10.774;2023-04-28T13:38:29;10.75;;;9.18;;
39502;SDS011;26970;49.900;10.774;2023-04-28T13:40:54;11.27;;;9.75;;
39502;SDS011;26970;49.900;10.774;2023-04-28T13:43:20;11.90;;;9.68;;
39502;SDS011;26970;49.900;10.774;2023-04-28T13:45:46;10.88;;;9.23;;
39502;SDS011;26970;49.900;10.774;2023-04-28T13:48:11;11.25;;;9.60;;
39502;SDS011;26970;49.900;10.774;2023-04-28T13:50:37;12.55;;;10.15;;
39502;SDS011;26970;49.900;10.774;2023-04-28T13:53:02;10.80;;;9.10;;
39502;SDS011;26970;49.900;10.774;2023-04-28T13:55:28;11.48;;;9.68;;
39502;SDS011;26970;49.900;10.774;2023-04-28T13:57:54;11.65;;;9.55;;
39502;SDS011;26970;49.900;10.774;2023-04-28T14:00:20;10.70;;;9.07;;
39502;SDS011;26970;49.900;10.774;2023-04-28T14:02:48;10.00;;;8.52;;
39502;SDS011;26970;49.900;10.774;2023-04-28T14:05:15;10.57;;;8.88;;
39502;SDS011;26970;49.900;10.774;2023-04-28T14:07:41;11.60;;;7.78;;
39502;SDS011;26970;49.900;10.774;2023-04-28T14:10:07;10.18;;;8.43;;
39502;SDS011;26970;49.900;10.774;2023-04-28T14:12:33;11.52;;;8.48;;
39502;SDS011;26970;49.900;10.774;2023-04-28T14:14:58;10.20;;;7.82;;
39502;SDS011;26970;49.900;10.774;2023-04-28T14:17:24;9.95;;;8.18;;
39502;SDS011;26970;49.900;10.774;2023-04-28T14:19:50;13.15;;;8.57;;
39502;SDS011;26970;49.900;10.774;2023-04-28T14:22:15;9.80;;;7.95;;
39502;SDS011;26970;49.900;10.774;2023-04-28T14:24:41;9.30;;;7.55;;
39502;SDS011;26970;49.900;10.774;2023-04-28T14:27:07;9.50;;;7.28;;
39502;SDS011;26970;49.900;10.774;2023-04-28T14:29:33;11.18;;;8.25;;
39502;SDS011;26970;49.900;10.774;2023-04-28T14:31:59;11.90;;;7.70;;
39502;SDS011;26970;49.900;10.774;2023-04-28T14:34:24;10.07;;;7.70;;
39502;SDS011;26970;49.900;10.774;2023-04-28T14:36:50;12.50;;;8.32;;
39502;SDS011;26970;49.900;10.774;2023-04-28T14:39:16;9.55;;;7.95;;
39502;SDS011;26970;49.900;10.774;2023-04-28T14:41:42;11.20;;;8.52;;
39502;SDS011;26970;49.900;10.774;2023-04-28T14:44:08;9.40;;;7.88;;
39502;SDS011;26970;49.900;10.774;2023-04-28T14:46:34;11.27;;;8.68;;
39502;SDS011;26970;49.900;10.774;2023-04-28T14:49:00;11.02;;;8.38;;
39502;SDS011;26970;49.900;10.774;2023-04-28T14:51:27;10.05;;;8.48;;
39502;SDS011;26970;49.900;10.774;2023-04-28T14:53:53;9.88;;;8.27;;
39502;SDS011;26970;49.900;10.774;2023-04-28T14:56:18;10.05;;;8.02;;
39502;SDS011;26970;49.900;10.774;2023-04-28T14:58:45;10.25;;;8.05;;
39502;SDS011;26970;49.900;10.774;2023-04-28T15:01:11;10.68;;;8.30;;
39502;SDS011;26970;49.900;10.774;2023-04-28T15:03:37;10.43;;;8.20;;